Time;durP1;ratioP1;P1;durP2;ratioP2;P2;SDS_P1;SDS_P2;PMS_P1;PMS_P2;Temp;Humidity;BMP_temperature;BMP_pressure;BME280_temperature;BME280_humidity;BME280_pressure;Samples;Min_cycle;Max_cycle;Signal;HPM_P1;HPM_P2
2023/09/09 00:01:22;;;;;;;15.00;13.87;;;;;;;20.01;78.01;97994.03;4992477;28;20470;-75
2023/09/09 00:03:49;;;;;;;16.20;14.90;;;;;;;19.95;78.25;97983.28;4995044;28;21035;-77
2023/09/09 00:06:16;;;;;;;15.37;14.27;;;;;;;19.98;78.25;97997.31;4998031;28;20492;-76
2023/09/09 00:08:43;;;;;;;14.60;13.50;;;;;;;19.96;78.12;97994.00;4996886;28;20470;-76
2023/09/09 00:11:10;;;;;;;15.00;13.80;;;;;;;19.97;78.35;97983.84;4995376;28;20465;-76
2023/09/09 00:13:37;;;;;;;16.33;15.07;;;;;;;19.87;78.81;97989.25;4992306;28;20842;-76
2023/09/09 00:16:05;;;;;;;15.60;14.50;;;;;;;19.83;78.61;97991.69;4993070;28;20504;-76
2023/09/09 00:18:32;;;;;;;15.70;14.53;;;;;;;19.74;79.47;97982.31;4997371;28;20459;-76
2023/09/09 00:21:00;;;;;;;16.30;15.10;;;;;;;19.78;79.20;97994.41;4993663;28;20456;-76
2023/09/09 00:23:27;;;;;;;16.27;15.07;;;;;;;19.65;79.93;97986.63;4991844;28;20488;-76
2023/09/09 00:25:53;;;;;;;14.77;13.57;;;;;;;19.59;79.13;97996.72;4992820;28;20868;-76
2023/09/09 00:28:21;;;;;;;14.87;13.77;;;;;;;19.56;79.65;97996.41;4993635;28;20462;-76
2023/09/09 00:30:48;;;;;;;14.30;13.10;;;;;;;19.50;79.56;98005.66;4993621;28;20498;-76
2023/09/09 00:33:16;;;;;;;14.63;13.43;;;;;;;19.42;79.64;97988.59;4998676;28;20483;-76
2023/09/09 00:35:43;;;;;;;13.90;12.90;;;;;;;19.30;80.07;97993.41;4994511;28;20573;-76
2023/09/09 00:38:12;;;;;;;14.07;12.73;;;;;;;19.35;80.30;98000.84;4993261;28;20457;-76
2023/09/09 00:40:42;;;;;;;14.90;13.70;;;;;;;19.39;79.89;97991.03;4992083;28;20529;-76
2023/09/09 00:43:09;;;;;;;13.90;13.00;;;;;;;19.36;79.80;97992.38;4999838;28;20473;-76
2023/09/09 00:45:36;;;;;;;14.33;13.33;;;;;;;19.38;79.69;97998.44;4991295;28;20522;-76
2023/09/09 00:48:03;;;;;;;13.03;12.03;;;;;;;19.28;79.99;97995.56;4994534;28;20618;-76
2023/09/09 00:50:31;;;;;;;13.67;12.70;;;;;;;19.42;79.33;97996.81;4995130;28;20548;-76
2023/09/09 00:52:58;;;;;;;15.00;13.60;;;;;;;19.20;80.31;98001.53;4997571;28;20509;-76
2023/09/09 00:55:27;;;;;;;13.93;12.93;;;;;;;19.18;80.44;97989.97;4995809;28;20545;-76
2023/09/09 00:57:54;;;;;;;13.50;12.47;;;;;;;19.16;80.77;97992.16;5001676;28;20468;-76
2023/09/09 01:00:21;;;;;;;13.60;12.60;;;;;;;19.09;80.95;97986.06;5000234;28;20450;-76
2023/09/09 01:02:48;;;;;;;14.67;13.57;;;;;;;19.19;80.61;97994.38;4991025;28;20853;-76
2023/09/09 01:05:15;;;;;;;15.20;14.00;;;;;;;19.18;80.44;97992.72;4990381;28;20486;-76
2023/09/09 01:07:44;;;;;;;15.50;14.20;;;;;;;18.98;81.45;97985.09;4994385;28;20542;-76
2023/09/09 01:10:11;;;;;;;15.57;14.27;;;;;;;18.94;81.55;97994.09;4995823;28;20457;-76
2023/09/09 01:12:38;;;;;;;12.90;12.00;;;;;;;18.95;81.53;97990.28;4996800;28;20489;-75
2023/09/09 01:15:06;;;;;;;15.73;14.43;;;;;;;18.85;81.90;97990.16;5010704;28;20545;-76
2023/09/09 01:17:34;;;;;;;14.87;13.67;;;;;;;18.85;82.20;97995.63;4999469;28;20458;-76
2023/09/09 01:20:04;;;;;;;14.43;13.30;;;;;;;18.93;81.76;97992.44;4994458;28;20458;-76
2023/09/09 01:22:35;;;;;;;14.43;13.13;;;;;;;18.87;81.90;97993.47;4993080;28;20894;-76
2023/09/09 01:25:04;;;;;;;15.07;13.87;;;;;;;18.76;82.38;97996.09;4993458;28;20557;-76
2023/09/09 01:27:31;;;;;;;14.53;13.40;;;;;;;18.71;82.53;97993.31;4999456;28;20445;-76
2023/09/09 01:29:58;;;;;;;14.37;13.30;;;;;;;18.73;82.93;98001.28;4996238;28;20464;-77
2023/09/09 01:32:25;;;;;;;14.40;13.30;;;;;;;18.66;82.85;98003.38;5000614;28;20568;-76
2023/09/09 01:34:51;;;;;;;14.40;13.30;;;;;;;18.60;83.15;97999.72;4994074;28;20496;-76
2023/09/09 01:37:18;;;;;;;14.17;13.07;;;;;;;18.48;83.92;98001.75;4994264;28;20466;-76
2023/09/09 01:39:46;;;;;;;14.57;13.47;;;;;;;18.36;84.18;97999.13;4993329;28;20512;-76
2023/09/09 01:42:14;;;;;;;15.33;14.13;;;;;;;18.46;83.93;98001.19;4991262;28;20487;-77
2023/09/09 01:44:41;;;;;;;14.37;13.17;;;;;;;18.41;83.98;97999.19;4990237;28;20551;-76
2023/09/09 01:47:09;;;;;;;15.17;13.97;;;;;;;18.28;84.83;98004.19;4991773;28;20553;-76
2023/09/09 01:49:36;;;;;;;14.73;13.53;;;;;;;18.42;84.24;98002.75;4997013;28;20990;-76
2023/09/09 01:52:04;;;;;;;15.30;13.90;;;;;;;18.44;83.89;98006.06;4992041;28;20477;-76
2023/09/09 01:54:31;;;;;;;15.03;13.93;;;;;;;18.37;84.17;98005.44;4996594;28;20579;-76
2023/09/09 01:56:59;;;;;;;15.83;14.63;;;;;;;18.37;84.07;98005.44;4996224;28;20497;-76
2023/09/09 01:59:26;;;;;;;15.67;14.30;;;;;;;18.11;85.33;97996.84;4995081;28;20454;-76
2023/09/09 02:01:53;;;;;;;16.10;14.90;;;;;;;18.06;85.77;97994.03;4992529;28;20464;-76
2023/09/09 02:04:20;;;;;;;15.97;14.77;;;;;;;17.97;86.17;98000.19;4990645;28;20547;-76
2023/09/09 02:06:47;;;;;;;16.00;14.83;;;;;;;18.03;85.96;97994.53;4996730;28;21026;-76
2023/09/09 02:09:14;;;;;;;16.77;15.50;;;;;;;17.92;86.20;97992.72;4994703;28;20540;-76
2023/09/09 02:11:41;;;;;;;17.47;16.10;;;;;;;17.89;86.58;97990.47;5002846;28;20462;-75
2023/09/09 02:14:09;;;;;;;15.47;14.27;;;;;;;17.98;86.12;97991.72;4998992;28;20539;-76
2023/09/09 02:16:36;;;;;;;15.60;14.43;;;;;;;18.04;85.90;97987.97;4999471;28;20508;-76
2023/09/09 02:19:03;;;;;;;15.57;14.47;;;;;;;18.16;85.30;98004.31;4995049;28;20539;-76
2023/09/09 02:21:30;;;;;;;16.43;15.23;;;;;;;18.04;85.30;97989.88;4998155;28;20461;-77
2023/09/09 02:23:57;;;;;;;15.80;14.50;;;;;;;17.85;86.38;97986.59;5009079;28;20475;-76
2023/09/09 02:26:24;;;;;;;15.77;14.73;;;;;;;17.73;87.00;97991.31;5000731;28;20536;-77
2023/09/09 02:28:50;;;;;;;15.00;13.90;;;;;;;17.89;86.36;97992.38;4994521;28;20873;-77
2023/09/09 02:31:19;;;;;;;17.33;15.90;;;;;;;17.79;86.88;97982.94;5001781;28;20473;-77
2023/09/09 02:33:45;;;;;;;18.33;16.90;;;;;;;17.66;87.58;97988.75;4997071;28;20480;-77
2023/09/09 02:36:12;;;;;;;16.67;15.47;;;;;;;17.73;86.99;97983.09;4995351;28;20481;-77
2023/09/09 02:38:39;;;;;;;16.20;15.10;;;;;;;17.69;87.06;97987.41;4996383;28;20469;-77
2023/09/09 02:41:06;;;;;;;17.77;16.47;;;;;;;17.62;87.55;97986.72;4995215;28;20487;-77
2023/09/09 02:43:33;;;;;;;19.00;17.60;;;;;;;17.62;87.09;97989.44;4994403;28;20532;-77
2023/09/09 02:46:00;;;;;;;18.93;17.40;;;;;;;17.63;87.47;97988.38;4996594;28;21526;-77
2023/09/09 02:48:28;;;;;;;20.03;18.30;;;;;;;17.44;88.48;97976.84;4994097;28;20485;-77
2023/09/09 02:50:54;;;;;;;18.53;17.13;;;;;;;17.46;88.33;97983.75;4994531;28;20464;-77
2023/09/09 02:53:22;;;;;;;19.77;18.27;;;;;;;17.41;88.51;97978.19;4995055;28;20564;-76
2023/09/09 02:55:49;;;;;;;19.97;18.47;;;;;;;17.36;89.07;97978.09;5001550;28;20449;-77
2023/09/09 02:58:15;;;;;;;18.93;17.40;;;;;;;17.44;88.91;97976.84;5000103;28;20817;-76
2023/09/09 03:00:42;;;;;;;21.83;20.10;;;;;;;17.32;89.16;97976.91;5011200;28;20464;-77
2023/09/09 03:03:09;;;;;;;21.93;20.20;;;;;;;17.34;89.64;97985.72;4992149;28;20512;-77
2023/09/09 03:05:37;;;;;;;21.13;19.50;;;;;;;17.43;89.12;97978.75;4994016;28;20481;-77
2023/09/09 03:08:05;;;;;;;21.10;19.53;;;;;;;17.43;88.88;97983.41;4997508;28;20539;-76
2023/09/09 03:10:32;;;;;;;20.43;18.77;;;;;;;17.36;89.54;97982.72;4996827;28;20460;-77
2023/09/09 03:12:59;;;;;;;21.50;19.90;;;;;;;17.36;89.65;97983.56;5002076;28;20482;-77
2023/09/09 03:15:26;;;;;;;21.97;20.30;;;;;;;17.28;89.93;97988.59;4998096;28;20466;-77
2023/09/09 03:17:52;;;;;;;22.67;21.07;;;;;;;17.28;90.15;97994.06;4995251;28;20511;-77
2023/09/09 03:20:19;;;;;;;22.63;20.80;;;;;;;17.04;91.28;97985.16;4996681;28;20536;-77
2023/09/09 03:22:47;;;;;;;22.37;20.57;;;;;;;17.08;91.45;97987.16;4992647;28;20478;-77
2023/09/09 03:25:14;;;;;;;23.30;21.40;;;;;;;17.19;91.33;97987.34;5002708;28;20520;-77
2023/09/09 03:27:41;;;;;;;22.63;20.83;;;;;;;17.29;90.77;97988.34;4994322;28;20469;-77
2023/09/09 03:30:09;;;;;;;22.03;20.43;;;;;;;17.19;91.30;97985.44;4992508;28;20544;-76
2023/09/09 03:32:36;;;;;;;21.80;20.10;;;;;;;17.13;91.44;97983.69;4997986;28;20505;-77
2023/09/09 03:35:03;;;;;;;22.63;20.63;;;;;;;17.19;91.36;97990.91;4993077;28;20458;-77
2023/09/09 03:37:30;;;;;;;23.60;21.90;;;;;;;17.11;91.78;97988.56;4993498;28;20469;-77
2023/09/09 03:39:58;;;;;;;23.00;21.10;;;;;;;17.15;91.69;97981.53;4994929;28;20549;-77
2023/09/09 03:42:25;;;;;;;24.30;22.33;;;;;;;17.08;92.05;97986.31;4998395;28;20532;-76
2023/09/09 03:44:53;;;;;;;22.13;20.40;;;;;;;17.20;91.62;97984.38;4992957;28;20546;-77
2023/09/09 03:47:21;;;;;;;21.83;20.20;;;;;;;17.33;90.90;97986.78;4995987;28;20450;-76
2023/09/09 03:49:48;;;;;;;21.50;19.87;;;;;;;17.44;90.04;97979.59;4995778;28;21020;-76
2023/09/09 03:52:15;;;;;;;24.30;22.30;;;;;;;17.33;90.52;97983.22;4993000;28;20487;-77
2023/09/09 03:54:42;;;;;;;23.07;21.27;;;;;;;17.27;90.79;97984.19;5002792;28;20548;-77
2023/09/09 03:57:10;;;;;;;24.37;22.40;;;;;;;17.26;91.06;97983.38;4996852;28;21023;-76
2023/09/09 03:59:37;;;;;;;25.07;23.10;;;;;;;17.13;91.63;97983.69;4999327;28;20456;-77
2023/09/09 04:02:03;;;;;;;24.27;22.27;;;;;;;17.06;92.20;97988.47;4992185;28;21052;-77
2023/09/09 04:04:30;;;;;;;23.97;22.03;;;;;;;17.05;92.25;97984.09;4999722;28;20485;-77
2023/09/09 04:06:57;;;;;;;24.20;22.30;;;;;;;17.02;92.34;97992.78;5001429;28;20489;-76
2023/09/09 04:09:26;;;;;;;22.97;21.17;;;;;;;17.07;92.32;97998.34;4994590;28;20524;-77
2023/09/09 04:11:54;;;;;;;23.80;21.77;;;;;;;17.07;92.09;97992.88;4996187;28;20592;-77
2023/09/09 04:14:22;;;;;;;25.77;23.50;;;;;;;17.04;91.83;97994.19;4991245;28;20648;-77
2023/09/09 04:16:49;;;;;;;24.00;22.10;;;;;;;17.04;91.96;97991.44;4997075;28;20527;-76
2023/09/09 04:19:16;;;;;;;26.67;24.47;;;;;;;16.94;92.28;97990.41;4994202;28;20511;-77
2023/09/09 04:21:43;;;;;;;23.83;21.83;;;;;;;16.93;92.19;97995.06;4993811;28;20567;-77
2023/09/09 04:24:09;;;;;;;25.73;23.63;;;;;;;16.90;92.50;97998.28;4991604;28;20544;-76
2023/09/09 04:26:36;;;;;;;24.10;22.10;;;;;;;16.74;93.16;97990.88;4992517;28;20503;-78
2023/09/09 04:29:03;;;;;;;25.20;23.10;;;;;;;16.83;92.82;97988.59;4992323;28;20469;-73
2023/09/09 04:31:32;;;;;;;26.40;24.20;;;;;;;16.71;93.17;97988.63;4990609;28;20493;-77
2023/09/09 04:33:59;;;;;;;26.73;24.53;;;;;;;16.63;93.72;97984.31;4990383;28;20549;-81
2023/09/09 04:36:26;;;;;;;25.60;23.50;;;;;;;16.60;94.06;97989.44;4993354;28;20496;-80
2023/09/09 04:38:53;;;;;;;25.50;23.37;;;;;;;16.70;93.51;97995.16;5005401;28;20460;-78
2023/09/09 04:41:19;;;;;;;26.13;24.10;;;;;;;16.64;93.62;97996.94;4992520;28;20449;-77
2023/09/09 04:43:46;;;;;;;26.53;24.27;;;;;;;16.59;93.61;97999.53;5007858;28;20876;-77
2023/09/09 04:46:13;;;;;;;25.03;23.03;;;;;;;16.50;93.61;97995.53;4993011;28;20581;-79
2023/09/09 04:48:41;;;;;;;26.90;24.80;;;;;;;16.50;93.78;97989.25;4992847;28;20549;-79
2023/09/09 04:51:09;;;;;;;25.00;23.07;;;;;;;16.44;94.24;97993.75;4992094;28;20615;-79
2023/09/09 04:53:35;;;;;;;23.40;21.60;;;;;;;16.54;93.87;97999.44;4992180;28;20486;-80
2023/09/09 04:56:03;;;;;;;24.97;23.00;;;;;;;16.52;93.64;97998.88;4997480;28;20461;-80
2023/09/09 04:58:30;;;;;;;25.17;23.07;;;;;;;16.65;93.04;97990.41;4993237;28;20973;-80
2023/09/09 05:00:57;;;;;;;25.87;23.87;;;;;;;16.59;93.04;98002.28;4993419;28;20857;-80
2023/09/09 05:03:24;;;;;;;22.73;21.03;;;;;;;16.63;92.92;98005.34;4993193;28;20854;-80
2023/09/09 05:05:52;;;;;;;24.57;22.50;;;;;;;16.66;92.88;97999.44;4992091;28;21001;-80
2023/09/09 05:08:19;;;;;;;26.00;23.90;;;;;;;16.71;92.62;98002.28;5000994;28;20484;-79
2023/09/09 05:10:46;;;;;;;23.20;21.30;;;;;;;16.79;92.38;98004.63;4994842;28;20557;-79
2023/09/09 05:13:13;;;;;;;22.83;21.13;;;;;;;16.78;92.26;98008.44;4992444;28;20572;-79
2023/09/09 05:15:40;;;;;;;25.27;23.23;;;;;;;16.82;92.11;98009.63;4994346;28;20476;-79
2023/09/09 05:18:06;;;;;;;23.03;21.23;;;;;;;16.81;92.20;98012.59;4992796;28;20496;-78
2023/09/09 05:20:33;;;;;;;25.93;23.93;;;;;;;16.91;91.69;98013.59;5002627;28;20497;-80
2023/09/09 05:23:01;;;;;;;24.40;22.50;;;;;;;16.87;91.69;98014.38;4989772;28;20469;-80
2023/09/09 05:25:28;;;;;;;23.43;21.50;;;;;;;16.96;91.46;98018.34;4997096;28;20536;-79
2023/09/09 05:27:55;;;;;;;22.70;20.87;;;;;;;16.94;91.47;98013.13;5006635;28;20453;-79
2023/09/09 05:30:22;;;;;;;21.93;20.17;;;;;;;16.92;91.65;98017.16;5004588;28;20488;-78
2023/09/09 05:32:48;;;;;;;23.23;21.37;;;;;;;16.96;91.66;98018.34;4990280;28;20548;-79
2023/09/09 05:35:15;;;;;;;23.40;21.60;;;;;;;16.99;91.65;98018.69;4989325;28;20473;-78
2023/09/09 05:37:43;;;;;;;22.90;21.10;;;;;;;17.02;91.46;98020.94;4990416;28;20458;-76
2023/09/09 05:40:12;;;;;;;23.63;21.80;;;;;;;17.05;91.17;98015.00;4999997;28;20464;-78
2023/09/09 05:42:39;;;;;;;23.50;21.80;;;;;;;17.12;91.13;98020.31;4996121;28;20576;-79
2023/09/09 05:45:09;;;;;;;22.87;21.17;;;;;;;17.10;91.16;98023.28;4994391;28;20541;-70
2023/09/09 05:47:35;;;;;;;24.00;22.07;;;;;;;17.14;91.08;98026.38;5001693;28;20514;-78
2023/09/09 05:50:04;;;;;;;22.63;20.93;;;;;;;17.21;91.19;98029.81;4991273;28;20454;-81
2023/09/09 05:52:32;;;;;;;22.43;20.53;;;;;;;17.27;90.82;98036.16;5000768;28;20473;-78
2023/09/09 05:54:58;;;;;;;21.90;20.30;;;;;;;17.20;90.95;98036.34;4990219;28;20544;-79
2023/09/09 05:57:27;;;;;;;23.20;21.50;;;;;;;17.37;89.97;98037.19;4989000;28;20454;-75
2023/09/09 05:59:53;;;;;;;21.67;19.87;;;;;;;17.43;90.10;98038.97;4990121;28;20458;-75
2023/09/09 06:02:20;;;;;;;24.43;22.57;;;;;;;17.55;89.34;98040.78;4990727;28;21241;-75
2023/09/09 06:04:47;;;;;;;23.47;21.67;;;;;;;17.73;88.60;98021.44;4988600;28;20560;-75
2023/09/09 06:07:14;;;;;;;22.40;20.70;;;;;;;18.03;86.88;98046.56;5008178;28;20880;-75
2023/09/09 06:09:40;;;;;;;21.43;19.63;;;;;;;18.35;85.50;98035.81;4989944;28;20478;-75
2023/09/09 06:12:08;;;;;;;21.60;20.00;;;;;;;18.66;84.24;98037.09;4993112;28;20993;-75
2023/09/09 06:14:36;;;;;;;19.97;18.47;;;;;;;18.91;83.21;98036.59;4992545;28;20479;-75
2023/09/09 06:17:03;;;;;;;18.93;17.63;;;;;;;19.35;81.03;98039.28;5006688;28;20530;-76
2023/09/09 06:19:30;;;;;;;20.17;18.47;;;;;;;19.77;79.03;98042.22;4990677;28;20963;-75
2023/09/09 06:21:57;;;;;;;16.43;14.83;;;;;;;20.41;76.60;98042.16;4984563;28;20517;-75
2023/09/09 06:24:24;;;;;;;17.67;16.37;;;;;;;20.39;75.07;98044.34;4989395;28;20577;-75
2023/09/09 06:26:51;;;;;;;17.73;16.33;;;;;;;20.58;75.14;98048.31;4989944;28;20950;-76
2023/09/09 06:29:17;;;;;;;16.80;15.50;;;;;;;20.86;73.41;98049.00;4988832;28;20540;-75
2023/09/09 06:31:45;;;;;;;16.93;15.73;;;;;;;21.06;72.56;98043.59;4996687;28;21261;-75
2023/09/09 06:34:14;;;;;;;15.20;14.10;;;;;;;21.49;70.94;98053.38;4999419;28;20494;-75
2023/09/09 06:36:40;;;;;;;17.90;16.63;;;;;;;21.51;69.89;98055.84;5007163;28;20455;-75
2023/09/09 06:39:07;;;;;;;16.47;15.13;;;;;;;21.87;69.41;98052.03;4991643;28;20984;-75
2023/09/09 06:41:34;;;;;;;15.50;14.30;;;;;;;22.32;67.44;98055.94;4988955;28;21023;-75
2023/09/09 06:44:01;;;;;;;15.63;14.53;;;;;;;22.79;66.11;98056.41;5001952;28;20458;-75
2023/09/09 06:46:27;;;;;;;16.20;15.10;;;;;;;22.66;65.75;98058.91;5001231;28;20489;-74
2023/09/09 06:48:56;;;;;;;14.70;13.30;;;;;;;23.19;63.86;98060.13;4999384;28;20462;-75
2023/09/09 06:51:23;;;;;;;13.73;12.73;;;;;;;23.42;63.03;98061.38;4995246;28;20476;-75
2023/09/09 06:53:50;;;;;;;14.70;13.60;;;;;;;24.13;60.57;98052.63;4989488;28;20961;-75
2023/09/09 06:56:17;;;;;;;13.73;12.90;;;;;;;24.00;60.34;98064.38;4989005;28;20468;-75
2023/09/09 06:58:43;;;;;;;15.30;14.20;;;;;;;24.42;59.04;98072.88;4998318;28;20465;-76
2023/09/09 07:01:11;;;;;;;16.43;15.17;;;;;;;24.56;58.76;98078.56;4994160;28;20571;-76
2023/09/09 07:03:38;;;;;;;13.77;12.80;;;;;;;24.69;58.31;98072.31;4995131;28;20581;-75
2023/09/09 07:06:06;;;;;;;15.67;14.40;;;;;;;25.06;57.38;98070.81;4995757;28;20563;-76
2023/09/09 07:08:33;;;;;;;14.10;13.20;;;;;;;25.13;56.63;98071.31;4992812;28;20456;-75
2023/09/09 07:11:00;;;;;;;13.87;12.80;;;;;;;25.14;56.90;98077.66;4997154;28;20471;-76
2023/09/09 07:13:27;;;;;;;14.53;13.53;;;;;;;25.25;56.26;98071.72;4993426;28;20557;-76
2023/09/09 07:15:54;;;;;;;16.23;15.23;;;;;;;25.27;55.78;98077.78;4992712;28;20465;-75
2023/09/09 07:18:21;;;;;;;13.83;12.83;;;;;;;25.11;56.78;98076.31;4995532;28;20458;-76
2023/09/09 07:20:48;;;;;;;13.83;12.73;;;;;;;25.47;55.38;98082.22;5001249;28;20461;-75
2023/09/09 07:23:18;;;;;;;16.90;15.47;;;;;;;25.71;54.84;98076.66;4999808;28;20473;-74
2023/09/09 07:25:46;;;;;;;13.93;12.93;;;;;;;26.07;53.85;98077.75;4990741;28;20548;-76
2023/09/09 07:28:13;;;;;;;15.03;13.93;;;;;;;26.22;53.22;98081.44;4996755;28;20500;-74
2023/09/09 07:30:40;;;;;;;15.27;14.00;;;;;;;27.04;50.61;98076.06;4990014;28;20481;-76
2023/09/09 07:33:07;;;;;;;14.20;13.03;;;;;;;27.06;51.21;98076.59;5001749;28;20577;-76
2023/09/09 07:35:35;;;;;;;13.60;12.60;;;;;;;27.38;50.30;98082.03;4992300;28;20457;-75
2023/09/09 07:38:02;;;;;;;13.20;12.30;;;;;;;27.50;49.48;98077.91;4991176;28;20454;-76
2023/09/09 07:40:30;;;;;;;13.63;12.47;;;;;;;27.98;48.79;98079.03;4989683;28;20470;-75
2023/09/09 07:42:57;;;;;;;14.10;13.10;;;;;;;27.90;48.53;98076.22;4989248;28;20481;-76
2023/09/09 07:45:24;;;;;;;13.73;12.83;;;;;;;27.60;49.41;98080.53;4992684;28;20536;-74
2023/09/09 07:47:51;;;;;;;11.60;10.80;;;;;;;27.41;49.86;98083.38;4998513;28;21085;-75
2023/09/09 07:50:18;;;;;;;14.10;13.10;;;;;;;27.75;48.61;98075.41;4995292;28;20809;-75
2023/09/09 07:52:45;;;;;;;12.30;11.50;;;;;;;28.17;48.57;98078.06;4992184;28;20500;-75
2023/09/09 07:55:12;;;;;;;13.20;12.27;;;;;;;29.05;45.85;98067.97;4990302;28;20476;-74
2023/09/09 07:57:40;;;;;;;11.00;10.10;;;;;;;29.35;44.89;98080.22;4991004;28;20450;-75
2023/09/09 08:00:08;;;;;;;12.83;11.90;;;;;;;29.91;43.97;98084.13;4992723;28;20458;-75
2023/09/09 08:02:36;;;;;;;12.90;11.80;;;;;;;29.91;43.90;98084.13;4989738;28;21032;-75
2023/09/09 08:05:03;;;;;;;12.20;11.40;;;;;;;30.36;42.59;98087.44;4990663;28;20541;-76
2023/09/09 08:07:30;;;;;;;11.60;10.80;;;;;;;29.93;43.62;98091.00;4994977;28;20543;-76
2023/09/09 08:09:57;;;;;;;11.90;11.00;;;;;;;30.21;42.93;98090.75;4987617;28;20461;-76
2023/09/09 08:12:23;;;;;;;10.93;10.03;;;;;;;30.84;41.34;98092.81;4988690;28;20597;-76
2023/09/09 08:15:03;;;;;;;10.73;9.93;;;;;;;30.98;40.88;98095.38;4992806;28;20509;-76
2023/09/09 08:17:30;;;;;;;10.07;9.37;;;;;;;31.10;41.07;98092.72;4996079;28;20504;-76
2023/09/09 08:19:57;;;;;;;11.70;10.87;;;;;;;31.63;39.59;98092.13;4989139;28;20865;-76
2023/09/09 08:22:24;;;;;;;12.50;11.60;;;;;;;31.83;38.63;98093.38;4988962;28;20517;-76
2023/09/09 08:24:51;;;;;;;10.93;10.13;;;;;;;31.93;38.88;98100.53;4991061;28;20469;-76
2023/09/09 08:27:18;;;;;;;11.57;10.77;;;;;;;32.48;37.36;98103.06;4991953;28;20600;-75
2023/09/09 08:29:44;;;;;;;10.10;9.27;;;;;;;32.62;37.67;98097.97;4990908;28;20497;-76
2023/09/09 08:32:13;;;;;;;10.53;9.83;;;;;;;33.02;36.41;98100.22;5003059;28;20479;-76
2023/09/09 08:34:41;;;;;;;11.83;11.03;;;;;;;33.56;35.60;98091.59;4994411;28;20461;-76
2023/09/09 08:37:08;;;;;;;11.53;10.73;;;;;;;31.84;38.81;98105.38;4993311;28;20454;-75
2023/09/09 08:39:35;;;;;;;11.83;11.03;;;;;;;32.54;37.52;98100.84;5008402;28;20809;-75
2023/09/09 08:42:08;;;;;;;11.83;10.93;;;;;;;32.04;38.38;98098.97;5000956;28;20516;-76
2023/09/09 08:44:42;;;;;;;11.50;10.70;;;;;;;32.40;37.82;98103.97;5002558;28;20441;-76
2023/09/09 08:47:09;;;;;;;12.93;12.03;;;;;;;32.37;37.71;98105.47;4988809;28;20886;-76
2023/09/09 08:49:39;;;;;;;12.20;11.43;;;;;;;32.60;37.81;98111.50;4995927;28;20489;-76
2023/09/09 08:52:11;;;;;;;13.37;12.30;;;;;;;33.11;36.47;98098.13;4994699;28;20517;-76
2023/09/09 08:54:38;;;;;;;12.83;11.70;;;;;;;32.68;36.68;98107.00;5006855;28;20500;-77
2023/09/09 08:57:05;;;;;;;11.77;10.97;;;;;;;32.17;37.69;98105.44;4985677;28;20462;-76
2023/09/09 08:59:32;;;;;;;10.60;9.80;;;;;;;32.10;38.03;98108.00;4989518;28;20458;-76
2023/09/09 09:02:00;;;;;;;11.73;10.93;;;;;;;32.24;37.76;98109.38;4990830;28;20482;-78
2023/09/09 09:04:28;;;;;;;9.70;9.10;;;;;;;32.62;37.43;98114.78;5003914;28;20516;-78
2023/09/09 09:06:56;;;;;;;11.20;10.40;;;;;;;33.11;36.60;98109.34;4988386;28;20555;-77
2023/09/09 09:09:23;;;;;;;12.30;11.50;;;;;;;34.11;35.20;98107.03;4990134;28;20528;-78
2023/09/09 09:11:51;;;;;;;9.83;9.03;;;;;;;33.83;35.44;98104.13;4990033;28;20481;-77
2023/09/09 09:14:18;;;;;;;10.40;9.70;;;;;;;34.21;34.51;98098.06;4995314;28;20850;-78
2023/09/09 09:16:45;;;;;;;9.63;9.03;;;;;;;34.60;33.75;98099.25;4989937;28;20473;-77
2023/09/09 09:19:15;;;;;;;10.50;9.80;;;;;;;33.66;34.19;98108.00;4989700;28;20462;-78
2023/09/09 09:21:43;;;;;;;11.13;10.20;;;;;;;33.88;34.68;98104.72;4988993;28;20997;-77
2023/09/09 09:24:11;;;;;;;9.17;8.57;;;;;;;34.56;33.72;98106.75;4989031;28;20470;-78
2023/09/09 09:26:38;;;;;;;10.27;9.60;;;;;;;35.19;32.42;98107.72;4986676;28;20973;-78
2023/09/09 09:29:05;;;;;;;11.00;10.20;;;;;;;34.57;33.28;98097.97;5003638;28;20458;-78
2023/09/09 09:31:33;;;;;;;10.27;9.53;;;;;;;34.28;33.27;98101.09;5007471;28;20469;-79
2023/09/09 09:33:59;;;;;;;9.30;8.60;;;;;;;34.12;34.28;98098.22;4998024;28;20506;-78
2023/09/09 09:36:26;;;;;;;9.67;8.97;;;;;;;35.02;33.58;98096.81;4987487;28;20913;-77
2023/09/09 09:38:54;;;;;;;9.17;8.57;;;;;;;36.05;31.43;98098.59;4983349;28;20548;-76
2023/09/09 09:41:23;;;;;;;10.00;9.30;;;;;;;36.40;30.30;98090.91;4986022;28;20557;-77
2023/09/09 09:43:50;;;;;;;9.07;8.57;;;;;;;35.97;31.45;98098.41;4987301;28;20949;-76
2023/09/09 09:46:19;;;;;;;8.70;8.10;;;;;;;35.86;31.59;98091.72;4987652;28;20489;-76
2023/09/09 09:48:46;;;;;;;8.80;8.20;;;;;;;35.52;31.69;98095.28;4997400;28;20521;-76
2023/09/09 09:51:13;;;;;;;8.57;7.80;;;;;;;35.93;31.30;98088.25;4990071;28;20480;-76
2023/09/09 09:53:51;;;;;;;8.10;7.60;;;;;;;36.54;30.53;98094.03;4990603;28;20472;-77
2023/09/09 09:56:19;;;;;;;9.20;8.60;;;;;;;36.20;30.62;98089.22;4987927;28;21200;-77
2023/09/09 09:58:48;;;;;;;8.70;8.20;;;;;;;36.49;30.13;98096.31;4987137;28;21000;-76
2023/09/09 10:01:15;;;;;;;9.07;8.23;;;;;;;36.49;29.98;98091.50;4990662;28;20477;-77
2023/09/09 10:03:51;;;;;;;9.03;8.43;;;;;;;36.08;30.24;98080.91;4989415;28;20498;-76
2023/09/09 10:06:22;;;;;;;7.50;7.00;;;;;;;36.15;30.05;98090.34;4989338;28;20472;-76
2023/09/09 10:08:53;;;;;;;7.90;7.33;;;;;;;36.27;29.01;98089.44;4989766;28;20981;-76
2023/09/09 10:11:25;;;;;;;7.63;7.13;;;;;;;36.18;29.46;98094.44;4999562;28;20540;-76
2023/09/09 10:14:03;;;;;;;8.43;7.90;;;;;;;37.00;28.76;98091.31;4991009;28;20449;-76
2023/09/09 10:16:30;;;;;;;8.20;7.40;;;;;;;36.13;29.85;98084.25;4986047;28;21022;-76
2023/09/09 10:18:58;;;;;;;8.07;7.47;;;;;;;37.21;28.49;98082.44;4996754;28;20992;-76
2023/09/09 10:21:26;;;;;;;7.40;7.00;;;;;;;37.55;27.60;98089.06;4995496;28;20535;-76
2023/09/09 10:23:55;;;;;;;8.37;7.87;;;;;;;37.99;27.09;98084.50;5001084;28;21183;-77
2023/09/09 10:26:22;;;;;;;7.23;6.73;;;;;;;38.49;26.09;98079.53;5003356;28;20878;-77
2023/09/09 10:28:49;;;;;;;7.40;6.90;;;;;;;38.10;26.91;98084.63;4993735;28;20905;-77
2023/09/09 10:31:19;;;;;;;7.60;6.60;;;;;;;37.90;27.17;98081.16;4991404;28;21371;-77
2023/09/09 10:33:48;;;;;;;7.23;6.73;;;;;;;38.37;26.07;98076.94;5004547;28;20450;-76
2023/09/09 10:36:16;;;;;;;6.63;6.23;;;;;;;38.92;25.21;98078.03;5001610;28;20547;-77
2023/09/09 10:38:43;;;;;;;6.93;6.43;;;;;;;38.81;25.34;98081.94;4994902;28;20609;-77
2023/09/09 10:41:11;;;;;;;7.30;6.90;;;;;;;38.90;24.87;98082.44;4977437;28;20512;-77
2023/09/09 10:43:38;;;;;;;6.80;6.20;;;;;;;38.86;25.01;98075.94;5004000;28;20960;-76
2023/09/09 10:46:05;;;;;;;6.20;5.80;;;;;;;38.56;24.35;98062.63;4991128;28;20523;-77
2023/09/09 10:48:33;;;;;;;6.17;5.43;;;;;;;38.84;24.42;98062.16;5002567;28;20516;-77
2023/09/09 10:51:05;;;;;;;7.10;6.57;;;;;;;38.43;25.19;98080.25;4997291;28;20497;-77
2023/09/09 10:53:33;;;;;;;6.60;6.10;;;;;;;37.38;26.68;98069.78;4999244;28;20500;-77
2023/09/09 10:56:00;;;;;;;6.60;6.20;;;;;;;38.50;25.36;98069.03;4996100;28;20517;-76
2023/09/09 10:58:32;;;;;;;7.10;6.60;;;;;;;38.85;24.16;98074.28;4997627;28;20458;-76
2023/09/09 11:01:00;;;;;;;6.77;6.37;;;;;;;37.89;25.46;98078.69;4999208;28;21520;-77
2023/09/09 11:03:29;;;;;;;5.87;5.53;;;;;;;38.13;25.25;98083.09;4995942;28;20464;-78
2023/09/09 11:06:05;;;;;;;6.00;5.60;;;;;;;38.20;25.11;98071.88;4992396;28;20469;-78
2023/09/09 11:08:35;;;;;;;7.10;6.43;;;;;;;37.87;26.19;98075.44;4991358;28;20469;-77
2023/09/09 11:11:12;;;;;;;6.30;5.90;;;;;;;38.81;24.80;98076.28;5001150;28;20484;-78
2023/09/09 11:13:41;;;;;;;6.27;5.87;;;;;;;38.35;25.58;98068.03;4998317;28;20464;-77
2023/09/09 11:16:08;;;;;;;7.23;6.63;;;;;;;37.87;25.83;98073.44;4994394;28;20461;-78
2023/09/09 11:18:35;;;;;;;6.60;6.20;;;;;;;38.29;25.17;98064.75;5002641;28;20456;-78
2023/09/09 11:21:04;;;;;;;7.40;6.90;;;;;;;38.06;25.78;98071.66;5004825;28;20542;-78